createdAt,value
2022-08-24T00:02:09.687Z,100592.03
2022-08-24T00:04:38.843Z,100602.63
2022-08-24T00:07:06.180Z,100625.84
2022-08-24T00:09:43.418Z,100622.06
2022-08-24T00:12:16.627Z,100641.88
2022-08-24T00:14:44.246Z,100606.09
2022-08-24T00:17:11.581Z,100614.06
2022-08-24T00:19:39.544Z,100623.06
2022-08-24T00:22:06.712Z,100642.53
2022-08-24T00:24:38.043Z,100642.28
2022-08-24T00:27:06.914Z,100629.91
2022-08-24T00:29:34.362Z,100637.63
2022-08-24T00:32:01.118Z,100610.59
2022-08-24T00:34:58.448Z,100585.75
2022-08-24T00:37:31.030Z,100607.22
2022-08-24T00:40:00.193Z,100610.28
2022-08-24T00:42:29.744Z,100548.19
2022-08-24T00:44:56.453Z,100566.94
2022-08-24T00:47:33.475Z,100597.53
2022-08-24T00:50:07.332Z,100600.19
2022-08-24T00:52:48.514Z,100593.22
2022-08-24T00:55:43.646Z,100591.78
2022-08-24T00:58:17.222Z,100634.81
2022-08-24T01:00:51.980Z,100619.59
2022-08-24T01:03:18.970Z,100617.19
2022-08-24T01:05:47.032Z,100602.53
2022-08-24T01:08:15.806Z,100596.81
2022-08-24T01:11:13.023Z,100636.84
2022-08-24T01:13:43.854Z,100620.78
2022-08-24T01:16:13.201Z,100601.16
2022-08-24T01:18:52.557Z,100602.22
2022-08-24T01:21:28.941Z,100617.66
2022-08-24T01:24:00.087Z,100618.56
2022-08-24T01:26:48.956Z,100613.59
2022-08-24T01:29:29.096Z,100606.41
2022-08-24T01:31:58.526Z,100616.47
2022-08-24T01:34:25.723Z,100602.09
2022-08-24T01:36:56.280Z,100617.06
2022-08-24T01:39:28.971Z,100620.44
2022-08-24T01:41:56.285Z,100606.84
2022-08-24T01:44:25.180Z,100608.44
2022-08-24T01:46:56.219Z,100613.22
2022-08-24T01:49:29.185Z,100619.31
2022-08-24T01:51:56.989Z,100619.22
2022-08-24T01:54:24.481Z,100625.84
2022-08-24T01:56:52.095Z,100623.28
2022-08-24T01:59:20.310Z,100610.56
2022-08-24T02:01:52.847Z,100608.06
2022-08-24T02:04:20.264Z,100618.72
2022-08-24T02:06:47.002Z,100611.19
2022-08-24T02:09:13.669Z,100604.19
2022-08-24T02:11:41.833Z,100603.91
2022-08-24T02:14:08.993Z,100598.94
2022-08-24T02:16:36.922Z,100593.22
2022-08-24T02:19:03.618Z,100599.22
2022-08-24T02:21:30.625Z,100593.63
2022-08-24T02:23:57.460Z,100595.75
2022-08-24T02:26:25.808Z,100609.81
2022-08-24T02:28:57.170Z,100595.22
2022-08-24T02:31:26.257Z,100595.41
2022-08-24T02:33:53.018Z,100581.66
2022-08-24T02:36:25.285Z,100605.91
2022-08-24T02:38:54.879Z,100593.72
2022-08-24T02:41:24.782Z,100607.25
2022-08-24T02:43:52.511Z,100586.31
2022-08-24T02:46:25.797Z,100605.28
2022-08-24T02:48:57.554Z,100598.38
2022-08-24T02:51:44.285Z,100606.22
2022-08-24T02:54:13.164Z,100597.78
2022-08-24T02:56:39.945Z,100591.63
2022-08-24T02:59:07.382Z,100586.53
2022-08-24T03:01:34.450Z,100584.63
2022-08-24T03:04:01.296Z,100584.09
2022-08-24T03:06:28.056Z,100587.28
2022-08-24T03:08:56.638Z,100579.22
2022-08-24T03:11:27.956Z,100593.09
2022-08-24T03:13:59.019Z,100590.34
2022-08-24T03:16:27.373Z,100578.78
2022-08-24T03:18:54.237Z,100574.22
2022-08-24T03:21:24.362Z,100594.44
2022-08-24T03:23:51.100Z,100591.78
2022-08-24T03:26:17.850Z,100582.88
2022-08-24T03:28:45.233Z,100599.81
2022-08-24T03:31:12.681Z,100597.25
2022-08-24T03:33:39.660Z,100580.97
2022-08-24T03:36:09.071Z,100556.47
2022-08-24T03:38:37.894Z,100571.28
2022-08-24T03:41:04.834Z,100578.66
2022-08-24T03:43:46.793Z,100561.09
2022-08-24T03:46:16.570Z,100570.22
2022-08-24T03:48:44.501Z,100562.19
2022-08-24T03:51:13.413Z,100582.00
2022-08-24T03:53:42.900Z,100515.38
2022-08-24T03:56:11.443Z,100571.50
2022-08-24T03:58:41.654Z,100565.00
2022-08-24T04:01:09.140Z,100573.38
2022-08-24T04:03:37.388Z,100562.28
2022-08-24T04:06:05.566Z,100554.31
2022-08-24T04:08:33.143Z,100563.53
2022-08-24T04:11:00.071Z,100558.66
2022-08-24T04:13:26.785Z,100554.66
2022-08-24T04:15:53.798Z,100530.00
2022-08-24T04:18:20.468Z,100541.94
2022-08-24T04:20:47.255Z,100537.06
2022-08-24T04:23:15.334Z,100558.66
2022-08-24T04:25:45.028Z,100562.09
2022-08-24T04:28:13.633Z,100559.84
2022-08-24T04:30:46.442Z,100567.25
2022-08-24T04:33:14.440Z,100555.94
2022-08-24T04:35:45.816Z,100567.91
2022-08-24T04:38:12.733Z,100538.16
2022-08-24T04:40:40.544Z,100543.44
2022-08-24T04:43:08.743Z,100541.66
2022-08-24T04:45:40.606Z,100553.69
2022-08-24T04:48:07.984Z,100515.53
2022-08-24T04:50:36.088Z,100519.53
2022-08-24T04:53:04.554Z,100531.34
2022-08-24T04:55:32.851Z,100549.97
2022-08-24T04:57:59.554Z,100554.44
2022-08-24T05:00:26.799Z,100537.06
2022-08-24T05:02:53.538Z,100537.28
2022-08-24T05:05:20.267Z,100530.19
2022-08-24T05:07:46.978Z,100525.13
2022-08-24T05:10:14.186Z,100533.19
2022-08-24T05:12:41.091Z,100542.81
2022-08-24T05:15:08.257Z,100538.34
2022-08-24T05:17:34.959Z,100539.94
2022-08-24T05:20:01.726Z,100523.03
2022-08-24T05:22:28.443Z,100540.28
2022-08-24T05:24:55.128Z,100530.56
2022-08-24T05:27:22.709Z,100539.63
2022-08-24T05:29:55.809Z,100530.97
2022-08-24T05:32:22.872Z,100535.63
2022-08-24T05:34:49.606Z,100525.88
2022-08-24T05:37:16.310Z,100523.66
2022-08-24T05:39:43.013Z,100540.59
2022-08-24T05:42:09.823Z,100532.63
2022-08-24T05:44:36.478Z,100505.88
2022-08-24T05:47:03.495Z,100535.59
2022-08-24T05:49:31.087Z,100534.56
2022-08-24T05:51:59.082Z,100526.06
2022-08-24T05:54:27.133Z,100545.03
2022-08-24T05:56:54.921Z,100501.97
2022-08-24T05:59:22.757Z,100531.06
2022-08-24T06:01:49.896Z,100560.25
2022-08-24T06:04:16.625Z,100557.13
2022-08-24T06:06:43.285Z,100552.97
2022-08-24T06:09:12.921Z,100528.19
2022-08-24T06:11:41.051Z,100557.38
2022-08-24T06:14:12.080Z,100560.28
2022-08-24T06:16:41.834Z,100548.81
2022-08-24T06:19:10.369Z,100556.34
2022-08-24T06:21:38.120Z,100558.69
2022-08-24T06:24:06.231Z,100545.63
2022-08-24T06:26:51.543Z,100535.97
2022-08-24T06:29:19.807Z,100538.47
2022-08-24T06:31:50.860Z,100524.09
2022-08-24T06:34:23.273Z,100535.72
2022-08-24T06:36:50.326Z,100532.03
2022-08-24T06:39:17.519Z,100527.09
2022-08-24T06:41:45.124Z,100506.31
2022-08-24T06:44:12.479Z,100507.56
2022-08-24T06:46:39.325Z,100517.19
2022-08-24T06:49:06.133Z,100517.06
2022-08-24T06:51:32.974Z,100498.16
2022-08-24T06:54:00.505Z,100537.53
2022-08-24T06:56:27.447Z,100515.41
2022-08-24T06:58:54.359Z,100525.59
2022-08-24T07:01:24.510Z,100521.50
2022-08-24T07:03:51.742Z,100521.38
2022-08-24T07:06:19.161Z,100535.88
2022-08-24T07:08:46.298Z,100501.09
2022-08-24T07:11:18.207Z,100527.53
2022-08-24T07:13:47.487Z,100549.53
2022-08-24T07:16:19.594Z,100543.19
2022-08-24T07:18:49.716Z,100560.69
2022-08-24T07:21:19.846Z,100534.44
2022-08-24T07:23:48.557Z,100555.81
2022-08-24T07:26:22.869Z,100543.66
2022-08-24T07:28:59.497Z,100546.19
2022-08-24T07:31:26.792Z,100555.47
2022-08-24T07:33:53.498Z,100526.38
2022-08-24T07:36:22.025Z,100526.56
2022-08-24T07:38:52.811Z,100543.09
2022-08-24T07:41:47.016Z,100538.84
2022-08-24T07:44:08.808Z,100528.56
2022-08-24T07:46:36.205Z,100539.47
2022-08-24T07:49:11.034Z,100533.13
2022-08-24T07:51:44.756Z,100560.75
2022-08-24T07:54:13.749Z,100563.63
2022-08-24T07:56:41.615Z,100555.34
2022-08-24T07:59:12.850Z,100558.56
2022-08-24T08:01:40.550Z,100548.38
2022-08-24T08:04:07.974Z,100550.84
2022-08-24T08:06:35.213Z,100566.50
2022-08-24T08:09:04.783Z,100569.22
2022-08-24T08:11:31.975Z,100579.72
2022-08-24T08:13:58.701Z,100567.97
2022-08-24T08:16:26.408Z,100582.09
2022-08-24T08:19:09.403Z,100588.84
2022-08-24T08:22:01.087Z,100578.47
2022-08-24T08:24:27.981Z,100590.84
2022-08-24T08:26:54.873Z,100601.22
2022-08-24T08:29:21.602Z,100591.91
2022-08-24T08:31:48.397Z,100596.06
2022-08-24T08:34:15.617Z,100603.06
2022-08-24T08:36:42.941Z,100590.75
2022-08-24T08:39:13.469Z,100596.81
2022-08-24T08:41:52.242Z,100614.91
2022-08-24T08:44:45.561Z,100617.25
2022-08-24T08:47:30.705Z,100610.13
2022-08-24T08:50:15.649Z,100601.03
2022-08-24T08:53:10.099Z,100600.06
2022-08-24T08:55:45.528Z,100595.03
2022-08-24T08:58:20.651Z,100605.69
2022-08-24T09:01:04.758Z,100566.00
2022-08-24T09:03:44.669Z,100600.59
2022-08-24T09:06:22.756Z,100592.56
2022-08-24T09:08:57.626Z,100581.50
2022-08-24T09:14:48.243Z,100578.44
2022-08-24T09:17:33.530Z,100576.53
2022-08-24T09:20:12.231Z,100571.16
2022-08-24T09:22:43.656Z,100575.81
2022-08-24T09:25:26.671Z,100546.44
2022-08-24T09:28:14.666Z,100560.81
2022-08-24T09:30:47.542Z,100561.66
2022-08-24T09:33:14.204Z,100560.09
2022-08-24T09:36:08.174Z,100560.75
2022-08-24T09:38:56.539Z,100567.88
2022-08-24T09:41:53.723Z,100555.47
2022-08-24T09:44:39.439Z,100570.97
2022-08-24T09:47:09.449Z,100566.50
2022-08-24T09:50:30.045Z,100507.25
2022-08-24T09:53:34.121Z,100556.41
2022-08-24T09:56:05.130Z,100546.78
2022-08-24T09:59:07.137Z,100545.03
2022-08-24T10:01:50.878Z,100538.44
2022-08-24T10:04:33.021Z,100538.00
2022-08-24T10:07:16.121Z,100533.09
2022-08-24T10:09:54.157Z,100543.78
2022-08-24T10:12:23.973Z,100549.06
2022-08-24T10:14:54.611Z,100548.66
2022-08-24T10:18:00.405Z,100535.84
2022-08-24T10:21:02.426Z,100545.66
2022-08-24T10:23:49.907Z,100531.78
2022-08-24T10:26:38.598Z,100549.78
2022-08-24T10:29:31.482Z,100536.41
2022-08-24T10:32:19.555Z,100550.72
2022-08-24T10:35:13.798Z,100548.38
2022-08-24T10:38:30.279Z,100545.59
2022-08-24T10:41:05.783Z,100508.41
2022-08-24T10:43:43.057Z,100524.91
2022-08-24T10:46:24.906Z,100519.16
2022-08-24T10:49:17.698Z,100517.84
2022-08-24T10:51:47.823Z,100508.34
2022-08-24T10:54:15.155Z,100500.91
2022-08-24T10:56:59.087Z,100499.81
2022-08-24T10:59:37.884Z,100510.91
2022-08-24T11:02:12.932Z,100512.63
2022-08-24T11:04:40.291Z,100502.19
2022-08-24T11:07:09.953Z,100512.53
2022-08-24T11:09:56.402Z,100510.03
2022-08-24T11:12:41.586Z,100514.91
2022-08-24T11:15:20.898Z,100527.69
2022-08-24T11:18:00.381Z,100514.81
2022-08-24T11:20:33.832Z,100533.63
2022-08-24T11:23:06.151Z,100510.66
2022-08-24T11:25:36.820Z,100524.97
2022-08-24T11:28:26.729Z,100512.59
2022-08-24T11:30:53.510Z,100501.41
2022-08-24T11:33:49.598Z,100513.75
2022-08-24T11:36:25.967Z,100516.47
2022-08-24T11:39:29.337Z,100515.38
2022-08-24T11:41:59.325Z,100516.91
2022-08-24T11:44:35.955Z,100512.63
2022-08-24T11:47:14.848Z,100527.81
2022-08-24T11:50:07.917Z,100534.31
2022-08-24T11:52:52.861Z,100536.56
2022-08-24T11:55:30.658Z,100521.53
2022-08-24T11:58:38.544Z,100533.28
2022-08-24T12:01:08.687Z,100529.91
2022-08-24T12:04:17.278Z,100532.63
2022-08-24T12:06:59.513Z,100523.41
2022-08-24T12:09:51.873Z,100542.22
2022-08-24T12:12:52.843Z,100521.84
2022-08-24T12:15:52.106Z,100484.66
2022-08-24T12:18:56.223Z,100536.50
2022-08-24T12:21:25.707Z,100529.59
2022-08-24T12:24:05.807Z,100524.47
2022-08-24T12:26:44.423Z,100530.16
2022-08-24T12:29:31.955Z,100533.53
2022-08-24T12:32:05.493Z,100543.69
2022-08-24T12:34:35.166Z,100546.59
2022-08-24T12:37:16.484Z,100534.28
2022-08-24T12:40:22.993Z,100529.72
2022-08-24T12:42:55.949Z,100538.94
2022-08-24T12:45:24.928Z,100535.34
2022-08-24T12:47:58.516Z,100526.44
2022-08-24T12:50:28.275Z,100519.91
2022-08-24T12:53:13.402Z,100515.94
2022-08-24T12:56:05.459Z,100512.41
2022-08-24T12:58:35.941Z,100511.28
2022-08-24T13:01:11.869Z,100520.47
2022-08-24T13:03:42.466Z,100510.50
2022-08-24T13:06:20.191Z,100504.94
2022-08-24T13:08:50.823Z,100494.03
2022-08-24T13:11:24.175Z,100525.31
2022-08-24T13:13:57.415Z,100519.28
2022-08-24T13:16:48.331Z,100520.34
2022-08-24T13:19:28.420Z,100527.13
2022-08-24T13:22:18.429Z,100523.63
2022-08-24T13:24:47.148Z,100486.38
2022-08-24T13:27:13.792Z,100532.31
2022-08-24T13:29:50.047Z,100524.22
2022-08-24T13:32:31.308Z,100543.19
2022-08-24T13:34:59.231Z,100534.25
2022-08-24T13:37:28.294Z,100537.66
2022-08-24T13:40:08.490Z,100542.28
2022-08-24T13:43:15.028Z,100543.38
2022-08-24T13:45:46.585Z,100543.81
2022-08-24T13:48:41.316Z,100538.91
2022-08-24T13:51:30.007Z,100549.28
2022-08-24T13:54:15.641Z,100506.78
2022-08-24T13:57:14.110Z,100559.06
2022-08-24T13:59:42.701Z,100557.44
2022-08-24T14:02:16.047Z,100576.22
2022-08-24T14:04:55.304Z,100559.31
2022-08-24T14:07:28.127Z,100555.59
2022-08-24T14:10:18.175Z,100565.56
2022-08-24T14:12:56.134Z,100554.66
2022-08-24T14:15:35.897Z,100576.56
2022-08-24T14:18:14.848Z,100564.75
2022-08-24T14:21:05.801Z,100552.28
2022-08-24T14:23:52.102Z,100574.41
2022-08-24T14:26:34.391Z,100573.25
2022-08-24T14:29:19.512Z,100565.81
2022-08-24T14:32:08.514Z,100561.69
2022-08-24T14:34:40.949Z,100569.72
2022-08-24T14:37:13.732Z,100575.84
2022-08-24T14:40:17.598Z,100565.66
2022-08-24T14:43:00.286Z,100568.69
2022-08-24T14:45:42.999Z,100562.00
2022-08-24T14:48:46.466Z,100576.94
2022-08-24T14:51:31.810Z,100584.94
2022-08-24T14:54:15.955Z,100575.69
2022-08-24T14:57:13.289Z,100568.75
2022-08-24T14:59:58.885Z,100561.31
2022-08-24T15:02:53.512Z,100589.41
2022-08-24T15:05:32.374Z,100598.47
2022-08-24T15:08:06.169Z,100577.47
2022-08-24T15:10:46.582Z,100540.31
2022-08-24T15:13:29.250Z,100555.75
2022-08-24T15:16:03.826Z,100594.16
2022-08-24T15:19:00.595Z,100580.38
2022-08-24T15:21:48.657Z,100573.81
2022-08-24T15:24:42.481Z,100561.09
2022-08-24T15:27:18.898Z,100582.31
2022-08-24T15:29:50.744Z,100536.47
2022-08-24T15:32:17.682Z,100574.91
2022-08-24T15:34:53.316Z,100565.56
2022-08-24T15:37:28.220Z,100590.41
2022-08-24T15:39:55.106Z,100590.19
2022-08-24T15:42:22.151Z,100597.81
2022-08-24T15:44:51.030Z,100578.16
2022-08-24T15:47:31.346Z,100588.69
2022-08-24T15:50:22.590Z,100611.59
2022-08-24T15:53:01.096Z,100627.16
2022-08-24T15:55:32.626Z,100623.41
2022-08-24T15:58:22.427Z,100630.53
2022-08-24T16:01:08.100Z,100600.41
2022-08-24T16:03:51.413Z,100632.16
2022-08-24T16:06:23.146Z,100628.09
2022-08-24T16:09:05.194Z,100636.78
2022-08-24T16:11:39.974Z,100640.59
2022-08-24T16:14:24.089Z,100629.69
2022-08-24T16:16:54.506Z,100629.38
2022-08-24T16:19:35.526Z,100623.28
2022-08-24T16:22:10.756Z,100632.53
2022-08-24T16:24:40.619Z,100636.84
2022-08-24T16:27:16.957Z,100641.72
2022-08-24T16:29:50.958Z,100653.47
2022-08-24T16:32:22.862Z,100674.50
2022-08-24T16:35:01.617Z,100674.72
2022-08-24T16:37:28.286Z,100625.00
2022-08-24T16:39:55.047Z,100627.22
2022-08-24T16:42:25.672Z,100672.22
2022-08-24T16:44:52.886Z,100650.47
2022-08-24T16:47:20.949Z,100685.34
2022-08-24T16:49:48.271Z,100691.41
2022-08-24T16:52:15.817Z,100697.22
2022-08-24T16:54:42.740Z,100703.25
2022-08-24T16:57:16.897Z,100722.34
2022-08-24T16:59:46.389Z,100738.16
2022-08-24T17:02:14.211Z,100740.47
2022-08-24T17:04:42.718Z,100749.28
2022-08-24T17:07:15.389Z,100742.28
2022-08-24T17:09:45.347Z,100757.28
2022-08-24T17:12:12.390Z,100722.06
2022-08-24T17:14:39.703Z,100749.66
2022-08-24T17:17:09.890Z,100721.13
2022-08-24T17:19:37.969Z,100731.88
2022-08-24T17:22:06.073Z,100733.97
2022-08-24T17:24:33.503Z,100741.19
2022-08-24T17:27:01.210Z,100735.78
2022-08-24T17:29:28.809Z,100749.28
2022-08-24T17:31:55.718Z,100742.88
2022-08-24T17:34:23.781Z,100746.63
2022-08-24T17:36:53.426Z,100754.25
2022-08-24T17:39:21.150Z,100744.31
2022-08-24T17:41:48.011Z,100725.34
2022-08-24T17:44:21.083Z,100771.16
2022-08-24T17:46:51.064Z,100784.09
2022-08-24T17:49:18.347Z,100787.81
2022-08-24T17:51:45.809Z,100801.75
2022-08-24T17:54:13.464Z,100791.09
2022-08-24T17:56:41.124Z,100772.56
2022-08-24T17:59:20.055Z,100800.19
2022-08-24T18:01:51.258Z,100800.78
2022-08-24T18:04:20.875Z,100743.50
2022-08-24T18:06:49.299Z,100803.69
2022-08-24T18:09:22.503Z,100783.28
2022-08-24T18:11:49.260Z,100784.41
2022-08-24T18:14:16.046Z,100810.47
2022-08-24T18:16:42.966Z,100801.44
2022-08-24T18:19:19.593Z,100847.22
2022-08-24T18:21:49.688Z,100840.25
2022-08-24T18:24:16.790Z,100843.13
2022-08-24T18:26:47.693Z,100845.38
2022-08-24T18:29:21.537Z,100789.91
2022-08-24T18:31:49.665Z,100819.00
2022-08-24T18:34:25.916Z,100832.09
2022-08-24T18:36:52.739Z,100831.59
2022-08-24T18:39:20.351Z,100853.66
2022-08-24T18:41:49.215Z,100849.97
2022-08-24T18:44:21.706Z,100877.84
2022-08-24T18:46:49.484Z,100879.69
2022-08-24T18:49:17.959Z,100873.97
2022-08-24T18:51:45.618Z,100824.44
2022-08-24T18:54:19.224Z,100841.91
2022-08-24T18:56:46.034Z,100872.41
2022-08-24T18:59:15.214Z,100880.84
2022-08-24T19:02:06.227Z,100895.28
2022-08-24T19:04:34.098Z,100882.66
2022-08-24T19:07:01.105Z,100896.34
2022-08-24T19:09:32.041Z,100893.03
2022-08-24T19:12:00.663Z,100906.75
2022-08-24T19:14:27.378Z,100906.81
2022-08-24T19:16:54.029Z,100906.41
2022-08-24T19:19:22.301Z,100908.66
2022-08-24T19:21:49.490Z,100915.09
2022-08-24T19:24:29.407Z,100918.34
2022-08-24T19:27:01.864Z,100953.56
2022-08-24T19:29:54.619Z,100928.53
2022-08-24T19:32:22.686Z,100958.94
2022-08-24T19:34:51.285Z,100963.63
2022-08-24T19:37:18.163Z,100962.25
2022-08-24T19:39:45.949Z,100965.50
2022-08-24T19:42:16.191Z,100987.09
2022-08-24T19:45:01.539Z,100979.59
2022-08-24T19:47:28.583Z,100991.56
2022-08-24T19:49:55.594Z,100977.66
2022-08-24T19:52:23.051Z,100979.00
2022-08-24T19:54:49.969Z,100997.59
2022-08-24T19:57:34.029Z,101004.97
2022-08-24T20:00:19.255Z,101007.25
2022-08-24T20:02:51.356Z,100999.91
2022-08-24T20:05:19.799Z,101001.25
2022-08-24T20:07:47.473Z,101005.03
2022-08-24T20:10:26.887Z,101003.72
2022-08-24T20:12:54.273Z,101017.75
2022-08-24T20:15:23.007Z,101003.84
2022-08-24T20:17:50.505Z,100995.16
2022-08-24T20:20:23.217Z,100997.16
2022-08-24T20:22:50.567Z,100993.28
2022-08-24T20:25:23.818Z,100980.63
2022-08-24T20:28:02.179Z,101033.72
2022-08-24T20:30:59.891Z,101005.28
2022-08-24T20:33:27.753Z,100997.91
2022-08-24T20:35:56.748Z,101032.41
2022-08-24T20:38:23.820Z,101042.63
2022-08-24T20:40:52.244Z,101042.06
2022-08-24T20:43:19.769Z,101043.81
2022-08-24T20:45:46.958Z,101040.50
2022-08-24T20:48:14.019Z,101056.03
2022-08-24T20:50:44.467Z,101054.88
2022-08-24T20:53:12.236Z,101067.19
2022-08-24T20:55:40.606Z,101064.47
2022-08-24T20:58:08.178Z,101037.25
2022-08-24T21:00:35.013Z,101049.94
2022-08-24T21:03:01.760Z,101036.16
2022-08-24T21:05:28.773Z,101046.38
2022-08-24T21:07:57.992Z,101042.75
2022-08-24T21:10:27.412Z,101058.06
2022-08-24T21:12:54.897Z,101050.44
2022-08-24T21:15:23.569Z,101057.69
2022-08-24T21:17:50.459Z,101047.34
2022-08-24T21:20:18.093Z,101048.44
2022-08-24T21:22:46.285Z,101055.09
2022-08-24T21:25:14.750Z,101046.91
2022-08-24T21:27:44.236Z,101046.63
2022-08-24T21:30:22.546Z,101057.50
2022-08-24T21:33:08.208Z,101065.72
2022-08-24T21:35:36.824Z,101062.41
2022-08-24T21:38:04.438Z,101069.97
2022-08-24T21:40:31.802Z,101087.06
2022-08-24T21:42:58.797Z,101045.19
2022-08-24T21:45:26.842Z,101070.69
2022-08-24T21:47:54.085Z,101072.53
2022-08-24T21:50:25.454Z,101083.69
2022-08-24T21:52:54.116Z,101073.19
2022-08-24T21:55:21.811Z,101059.06
2022-08-24T21:57:49.420Z,101079.38
2022-08-24T22:00:19.110Z,101086.09
2022-08-24T22:02:48.234Z,101089.50
2022-08-24T22:05:16.689Z,101099.91
2022-08-24T22:07:44.175Z,101112.44
2022-08-24T22:10:12.304Z,101092.44
2022-08-24T22:12:41.882Z,101107.69
2022-08-24T22:15:11.679Z,101118.13
2022-08-24T22:17:39.265Z,101121.97
2022-08-24T22:20:07.940Z,101104.84
2022-08-24T22:22:46.091Z,101114.41
2022-08-24T22:25:13.219Z,101075.63
2022-08-24T22:27:44.072Z,101128.03
2022-08-24T22:30:13.215Z,101142.78
2022-08-24T22:32:39.945Z,101132.81
2022-08-24T22:35:07.678Z,101121.72
2022-08-24T22:37:34.865Z,101138.25
2022-08-24T22:40:02.678Z,101138.09
2022-08-24T22:42:30.621Z,101142.25
2022-08-24T22:44:59.001Z,101150.25
2022-08-24T22:47:27.038Z,101138.66
2022-08-24T22:49:55.199Z,101132.06
2022-08-24T22:52:22.155Z,101126.31
2022-08-24T22:54:49.038Z,101122.00
2022-08-24T22:57:17.664Z,101126.59
2022-08-24T22:59:47.048Z,101131.56
2022-08-24T23:02:16.170Z,101136.94
2022-08-24T23:04:45.923Z,101141.44
2022-08-24T23:07:13.162Z,101145.44
2022-08-24T23:09:44.028Z,101140.16
2022-08-24T23:12:14.845Z,101143.19
2022-08-24T23:14:43.428Z,101164.03
2022-08-24T23:17:10.514Z,101127.28
2022-08-24T23:19:55.654Z,101135.09
2022-08-24T23:22:22.349Z,101154.75
2022-08-24T23:24:49.201Z,101162.50
2022-08-24T23:27:17.769Z,101175.38
2022-08-24T23:29:46.135Z,101148.06
2022-08-24T23:32:14.175Z,101167.31
2022-08-24T23:34:46.529Z,101155.97
2022-08-24T23:37:14.017Z,101148.41
2022-08-24T23:39:40.657Z,101144.00
2022-08-24T23:42:07.710Z,101134.03
2022-08-24T23:44:34.591Z,101122.94
2022-08-24T23:47:02.049Z,101153.00
2022-08-24T23:49:30.186Z,101149.53
2022-08-24T23:51:57.536Z,101130.19
2022-08-24T23:54:24.898Z,101148.06
2022-08-24T23:56:54.801Z,101150.78
2022-08-24T23:59:27.803Z,101147.75
